Time;durP1;ratioP1;P1;durP2;ratioP2;P2;SDS_P1;SDS_P2;PMS_P1;PMS_P2;Temp;Humidity;BMP_temperature;BMP_pressure;BME280_temperature;BME280_humidity;BME280_pressure;Samples;Min_cycle;Max_cycle;Signal;HPM_P1;HPM_P2
2023/04/24 00:02:22;;;;;;;2.97;1.20;;;;;;;18.50;52.38;99305.47;5092063;28;20545;-65
2023/04/24 00:04:48;;;;;;;1.55;1.00;;;;;;;18.50;52.30;99303.66;5092265;28;20031;-66
2023/04/24 00:07:16;;;;;;;2.90;1.00;;;;;;;18.50;52.18;99301.03;5091855;28;20032;-65
2023/04/24 00:09:42;;;;;;;2.17;0.93;;;;;;;18.50;52.31;99300.19;5092198;28;20092;-66
2023/04/24 00:12:08;;;;;;;1.67;0.90;;;;;;;18.50;52.14;99302.81;5092187;28;20494;-65
2023/04/24 00:14:34;;;;;;;1.92;1.00;;;;;;;18.48;52.51;99302.03;5091834;28;20106;-65
2023/04/24 00:17:01;;;;;;;2.22;0.93;;;;;;;18.48;52.29;99292.34;5091996;28;20035;-66
2023/04/24 00:19:26;;;;;;;2.00;0.90;;;;;;;18.48;52.13;99294.09;5091943;28;20067;-65
2023/04/24 00:21:52;;;;;;;2.20;0.90;;;;;;;18.47;52.23;99295.91;5091754;28;20474;-64
2023/04/24 00:24:18;;;;;;;2.83;1.20;;;;;;;18.46;51.96;99294.19;5092077;28;20476;-65
2023/04/24 00:26:44;;;;;;;1.58;0.93;;;;;;;18.47;52.03;99295.91;5091923;28;20127;-65
2023/04/24 00:29:09;;;;;;;1.88;1.23;;;;;;;18.42;52.54;99295.31;5091864;28;20480;-65
2023/04/24 00:31:35;;;;;;;1.83;1.00;;;;;;;18.43;52.26;99294.38;5073347;28;20039;-65
2023/04/24 00:34:02;;;;;;;2.25;1.17;;;;;;;18.42;52.26;99297.94;5091725;28;20055;-66
2023/04/24 00:36:27;;;;;;;2.38;1.00;;;;;;;18.43;52.46;99302.28;5091974;28;20039;-65
2023/04/24 00:38:53;;;;;;;2.13;1.00;;;;;;;18.41;52.47;99303.31;5091912;28;20012;-64
2023/04/24 00:41:19;;;;;;;2.00;1.00;;;;;;;18.42;52.20;99303.22;5091739;28;20024;-65
2023/04/24 00:43:45;;;;;;;2.30;1.05;;;;;;;18.41;52.33;99296.25;5091652;28;20073;-65
2023/04/24 00:46:12;;;;;;;1.70;0.90;;;;;;;18.39;52.44;99303.38;5091921;28;20108;-65
2023/04/24 00:48:39;;;;;;;1.95;0.80;;;;;;;18.37;52.48;99302.63;5073216;28;20055;-64
2023/04/24 00:51:04;;;;;;;1.55;0.80;;;;;;;18.36;52.68;99303.56;5091904;28;20024;-65
2023/04/24 00:53:30;;;;;;;1.65;0.93;;;;;;;18.40;52.21;99306.88;5091572;28;20366;-65
2023/04/24 00:55:56;;;;;;;2.00;1.10;;;;;;;18.38;52.50;99297.25;5091713;28;20027;-65
2023/04/24 00:58:22;;;;;;;2.17;1.13;;;;;;;18.37;52.47;99300.81;5091643;28;20078;-65
2023/04/24 01:00:52;;;;;;;1.33;0.93;;;;;;;18.36;52.27;99298.28;5091617;28;20063;-65
2023/04/24 01:03:20;;;;;;;2.38;1.15;;;;;;;18.37;52.24;99302.63;5091377;28;20017;-65
2023/04/24 01:05:46;;;;;;;1.83;1.10;;;;;;;18.36;52.35;99298.28;5091536;28;20082;-66
2023/04/24 01:08:11;;;;;;;3.33;1.10;;;;;;;18.33;52.29;99293.13;5091556;28;20020;-65
2023/04/24 01:10:38;;;;;;;2.30;1.10;;;;;;;18.34;52.41;99289.56;5092135;28;20484;-65
2023/04/24 01:13:05;;;;;;;1.63;0.95;;;;;;;18.32;52.54;99297.59;5095259;28;20028;-65
2023/04/24 01:15:30;;;;;;;1.15;0.70;;;;;;;18.31;52.28;99295.00;5095104;28;20020;-65
2023/04/24 01:17:56;;;;;;;1.65;1.10;;;;;;;18.32;52.37;99296.72;5094676;28;20035;-66
2023/04/24 01:20:24;;;;;;;2.03;1.08;;;;;;;18.31;52.27;99295.00;5095219;28;20020;-65
2023/04/24 01:22:49;;;;;;;3.00;0.95;;;;;;;18.31;52.39;99295.00;5095008;28;20032;-65
2023/04/24 01:25:15;;;;;;;2.65;1.10;;;;;;;18.29;52.28;99289.81;5094893;28;20024;-66
2023/04/24 01:27:40;;;;;;;2.08;1.02;;;;;;;18.30;52.45;99288.03;5094864;28;20089;-64
2023/04/24 01:30:07;;;;;;;1.73;0.98;;;;;;;18.29;52.49;99284.53;5095012;28;20115;-65
2023/04/24 01:32:33;;;;;;;1.88;1.05;;;;;;;18.29;52.57;99283.66;5094217;28;20028;-65
2023/04/24 01:34:59;;;;;;;2.30;0.90;;;;;;;18.28;52.15;99285.47;5110349;28;20039;-65
2023/04/24 01:37:24;;;;;;;2.30;1.10;;;;;;;18.25;52.42;99283.84;5094544;28;20027;-66
2023/04/24 01:39:50;;;;;;;3.25;1.10;;;;;;;18.28;52.28;99284.59;5094608;28;20103;-64
2023/04/24 01:42:16;;;;;;;2.70;0.98;;;;;;;18.24;52.62;99284.78;5094516;28;20330;-66
2023/04/24 01:44:41;;;;;;;2.05;0.82;;;;;;;18.25;52.25;99286.47;5094505;28;20030;-65
2023/04/24 01:47:07;;;;;;;1.90;1.08;;;;;;;18.23;52.62;99284.84;5094256;28;20481;-66
2023/04/24 01:49:32;;;;;;;2.08;1.02;;;;;;;18.24;52.29;99284.78;5076233;28;20392;-65
2023/04/24 01:51:58;;;;;;;1.75;1.02;;;;;;;18.20;52.58;99277.94;5094571;28;20020;-65
2023/04/24 01:54:23;;;;;;;2.40;1.10;;;;;;;18.19;52.54;99281.50;5094448;28;20028;-65
2023/04/24 01:56:49;;;;;;;1.83;1.05;;;;;;;18.21;52.51;99281.44;5094213;28;20032;-65
2023/04/24 01:59:16;;;;;;;3.13;1.33;;;;;;;18.21;52.25;99284.91;5094451;28;20056;-65
2023/04/24 02:01:42;;;;;;;1.85;1.10;;;;;;;18.25;52.64;99288.25;5093811;28;20536;-65
2023/04/24 02:04:07;;;;;;;2.50;1.15;;;;;;;18.20;52.31;99283.22;5094146;28;20107;-64
2023/04/24 02:06:33;;;;;;;1.67;1.05;;;;;;;18.19;52.61;99276.22;5094108;28;20027;-65
2023/04/24 02:08:59;;;;;;;1.92;0.80;;;;;;;18.20;52.53;99277.94;5094124;28;20019;-66
2023/04/24 02:11:25;;;;;;;1.40;0.80;;;;;;;18.21;52.38;99279.63;5093986;28;20035;-66
2023/04/24 02:13:51;;;;;;;2.13;1.02;;;;;;;18.21;52.38;99284.91;5093876;28;20024;-65
2023/04/24 02:16:17;;;;;;;2.15;0.93;;;;;;;18.17;52.59;99288.66;5093533;28;20484;-66
2023/04/24 02:18:42;;;;;;;2.35;1.00;;;;;;;18.17;52.26;99288.66;5093975;28;20052;-65
2023/04/24 02:21:08;;;;;;;2.10;0.90;;;;;;;18.17;52.67;99290.44;5093563;28;20643;-65
2023/04/24 02:23:33;;;;;;;2.20;0.95;;;;;;;18.16;52.61;99286.09;5093801;28;20031;-67
2023/04/24 02:25:59;;;;;;;2.05;1.00;;;;;;;18.17;52.34;99291.31;5093599;28;20450;-64
2023/04/24 02:28:24;;;;;;;2.42;1.00;;;;;;;18.17;52.35;99293.09;5093795;28;20035;-65
2023/04/24 02:30:50;;;;;;;1.80;0.93;;;;;;;18.15;52.50;99295.78;5093376;28;20024;-64
2023/04/24 02:33:16;;;;;;;2.25;1.08;;;;;;;18.15;52.34;99295.78;5093337;28;20500;-65
2023/04/24 02:35:42;;;;;;;2.53;0.90;;;;;;;18.17;52.33;99290.44;5093590;28;20050;-65
2023/04/24 02:38:07;;;;;;;2.55;1.27;;;;;;;18.15;52.24;99290.50;5093292;28;20458;-65
2023/04/24 02:40:32;;;;;;;1.60;0.82;;;;;;;18.13;52.27;99302.97;5093496;28;20016;-64
2023/04/24 02:42:58;;;;;;;2.58;1.30;;;;;;;18.13;52.48;99291.53;5093546;28;20476;-65
2023/04/24 02:45:23;;;;;;;2.83;1.00;;;;;;;18.12;52.66;99295.97;5093137;28;20032;-65
2023/04/24 02:47:48;;;;;;;2.33;0.85;;;;;;;18.12;52.43;99290.69;5093458;28;20465;-64
2023/04/24 02:50:14;;;;;;;2.65;1.10;;;;;;;18.12;52.56;99290.69;5093294;28;20024;-64
2023/04/24 02:52:39;;;;;;;2.08;0.82;;;;;;;18.10;52.77;99301.31;5093220;28;20028;-67
2023/04/24 02:55:05;;;;;;;1.98;0.98;;;;;;;18.11;52.42;99295.09;5093007;28;20573;-65
2023/04/24 02:57:30;;;;;;;1.98;0.90;;;;;;;18.13;52.64;99296.81;5093146;28;20028;-66
2023/04/24 02:59:56;;;;;;;1.73;0.90;;;;;;;18.12;52.32;99306.53;5092804;28;20113;-65
2023/04/24 03:02:21;;;;;;;2.80;1.45;;;;;;;18.08;52.37;99304.97;5093108;28;20055;-65
2023/04/24 03:04:48;;;;;;;1.90;1.02;;;;;;;18.09;52.61;99301.41;5093162;28;20024;-65
2023/04/24 03:07:14;;;;;;;2.40;1.15;;;;;;;18.07;52.26;99292.72;5092824;28;20024;-66
2023/04/24 03:09:40;;;;;;;1.42;0.80;;;;;;;18.08;52.24;99297.06;5092849;28;20421;-65
2023/04/24 03:12:05;;;;;;;1.85;0.93;;;;;;;18.06;52.63;99296.28;5093062;28;20028;-64
2023/04/24 03:14:31;;;;;;;1.60;1.10;;;;;;;18.07;52.53;99287.44;5092497;28;20381;-65
2023/04/24 03:16:56;;;;;;;1.98;0.95;;;;;;;18.08;52.36;99297.06;5092819;28;20051;-65
2023/04/24 03:19:22;;;;;;;2.30;1.10;;;;;;;18.09;52.43;99296.13;5092717;28;20410;-64
2023/04/24 03:21:48;;;;;;;2.15;0.73;;;;;;;18.07;52.25;99292.72;5092804;28;20023;-64
2023/04/24 03:24:13;;;;;;;1.20;0.75;;;;;;;18.06;52.37;99289.22;5092761;28;20077;-65
2023/04/24 03:26:39;;;;;;;2.53;1.15;;;;;;;18.06;52.43;99291.00;5092607;28;20484;-65
2023/04/24 03:29:04;;;;;;;1.60;0.77;;;;;;;18.07;52.31;99292.72;5092534;28;20032;-64
2023/04/24 03:31:30;;;;;;;3.50;1.02;;;;;;;18.04;52.51;99293.69;5092653;28;20031;-66
2023/04/24 03:33:55;;;;;;;1.10;0.82;;;;;;;18.05;52.33;99294.53;5091661;28;20507;-64
2023/04/24 03:36:20;;;;;;;2.28;1.00;;;;;;;18.04;52.56;99298.09;5092443;28;20032;-66
2023/04/24 03:38:46;;;;;;;2.05;0.93;;;;;;;18.03;52.57;99284.06;5092479;28;20035;-66
2023/04/24 03:41:11;;;;;;;2.08;0.75;;;;;;;18.01;52.52;99293.00;5074121;28;20499;-65
2023/04/24 03:43:37;;;;;;;1.52;0.70;;;;;;;17.99;52.51;99287.78;5092001;28;20061;-66
2023/04/24 03:46:03;;;;;;;2.33;1.10;;;;;;;18.03;52.63;99301.69;5092429;28;20055;-66
2023/04/24 03:48:29;;;;;;;1.77;0.95;;;;;;;18.00;52.49;99296.56;5092395;28;20442;-65
2023/04/24 03:50:54;;;;;;;1.83;0.80;;;;;;;17.98;52.43;99294.84;5092303;28;20039;-65
2023/04/24 03:53:19;;;;;;;2.28;0.80;;;;;;;17.98;52.75;99294.84;5092314;28;20024;-64
2023/04/24 03:55:45;;;;;;;3.08;1.13;;;;;;;17.96;52.41;99295.84;5092261;28;20043;-65
2023/04/24 03:58:11;;;;;;;2.28;1.00;;;;;;;17.96;52.81;99306.41;5091983;28;20040;-65
2023/04/24 04:00:37;;;;;;;3.92;1.10;;;;;;;17.98;52.46;99305.41;5074032;28;20028;-65
2023/04/24 04:03:03;;;;;;;3.55;1.25;;;;;;;17.97;52.37;99303.69;5092154;28;20028;-65
2023/04/24 04:05:29;;;;;;;2.33;1.00;;;;;;;17.96;52.43;99304.63;5092177;28;20028;-65
2023/04/24 04:07:54;;;;;;;2.80;1.05;;;;;;;17.95;52.39;99304.72;5092284;28;20021;-65
2023/04/24 04:10:20;;;;;;;3.28;1.15;;;;;;;17.95;52.48;99315.25;5092323;28;20463;-64
2023/04/24 04:12:45;;;;;;;1.35;0.80;;;;;;;17.93;52.64;99312.69;5091683;28;20398;-66
2023/04/24 04:15:11;;;;;;;3.45;1.00;;;;;;;17.94;52.37;99305.66;5092131;28;20476;-65
2023/04/24 04:17:37;;;;;;;1.85;0.90;;;;;;;17.95;52.61;99310.00;5092177;28;20020;-67
2023/04/24 04:20:07;;;;;;;2.05;0.88;;;;;;;17.93;52.70;99302.13;5092196;28;20031;-65
2023/04/24 04:22:32;;;;;;;2.00;0.73;;;;;;;17.92;52.62;99307.53;5092149;28;20020;-64
2023/04/24 04:24:58;;;;;;;3.45;0.80;;;;;;;17.91;52.52;99309.28;5092264;28;20468;-66
2023/04/24 04:27:23;;;;;;;1.90;1.10;;;;;;;17.91;52.52;99304.00;5091554;28;20055;-66
2023/04/24 04:29:49;;;;;;;2.55;1.00;;;;;;;17.94;52.44;99309.16;5074021;28;20137;-66
2023/04/24 04:32:15;;;;;;;1.73;0.90;;;;;;;17.92;52.48;99310.16;5091789;28;20016;-66
2023/04/24 04:34:42;;;;;;;1.75;0.77;;;;;;;17.90;52.74;99314.63;5091728;28;20040;-65
2023/04/24 04:37:07;;;;;;;1.63;0.80;;;;;;;17.90;52.49;99318.16;5091674;28;20020;-64
2023/04/24 04:39:32;;;;;;;2.35;0.73;;;;;;;17.89;52.52;99305.88;5091986;28;20020;-64
2023/04/24 04:41:58;;;;;;;1.95;0.88;;;;;;;17.89;52.65;99308.53;5091266;28;20076;-64
2023/04/24 04:44:24;;;;;;;1.80;1.00;;;;;;;17.90;52.49;99315.50;5091973;28;20028;-65
2023/04/24 04:46:49;;;;;;;2.05;0.90;;;;;;;17.89;52.52;99310.31;5095640;28;20408;-65
2023/04/24 04:49:16;;;;;;;1.50;0.90;;;;;;;17.88;52.75;99320.03;5077772;28;20399;-67
2023/04/24 04:51:42;;;;;;;2.13;0.95;;;;;;;17.90;52.99;99323.44;5095314;28;20023;-66
2023/04/24 04:54:07;;;;;;;2.15;1.02;;;;;;;17.86;52.43;99327.16;5077560;28;20020;-65
2023/04/24 04:56:33;;;;;;;3.30;0.90;;;;;;;17.86;52.53;99321.88;5094874;28;20074;-66
2023/04/24 04:58:59;;;;;;;2.75;0.98;;;;;;;17.87;52.73;99328.00;5095415;28;20027;-65
2023/04/24 05:01:27;;;;;;;2.67;1.08;;;;;;;17.85;52.46;99328.06;5095551;28;20078;-65
2023/04/24 05:03:53;;;;;;;2.15;0.98;;;;;;;17.84;52.77;99319.28;5095326;28;20024;-65
2023/04/24 05:06:18;;;;;;;3.47;1.00;;;;;;;17.87;52.53;99326.22;5095434;28;20117;-65
2023/04/24 05:08:44;;;;;;;2.40;1.00;;;;;;;17.83;52.41;99324.66;5095103;28;20058;-65
2023/04/24 05:11:09;;;;;;;2.40;0.82;;;;;;;17.83;52.64;99337.88;5094827;28;20658;-65
2023/04/24 05:13:35;;;;;;;2.17;1.08;;;;;;;17.83;52.45;99332.59;5095231;28;20028;-65
2023/04/24 05:16:00;;;;;;;2.47;1.00;;;;;;;17.83;52.57;99343.16;5094986;28;20035;-66
2023/04/24 05:18:26;;;;;;;1.95;1.10;;;;;;;17.84;52.38;99336.94;5095171;28;20024;-65
2023/04/24 05:20:51;;;;;;;2.50;1.00;;;;;;;17.83;52.42;99332.59;5095305;28;20380;-64
2023/04/24 05:23:17;;;;;;;2.17;0.80;;;;;;;17.83;52.63;99338.72;5095071;28;20384;-65
2023/04/24 05:25:42;;;;;;;2.05;0.80;;;;;;;17.84;52.29;99350.13;5094790;28;20024;-66
2023/04/24 05:28:08;;;;;;;3.22;0.98;;;;;;;17.81;52.74;99355.53;5094749;28;20044;-65
2023/04/24 05:30:33;;;;;;;2.67;1.10;;;;;;;17.80;52.58;99348.56;5094945;28;20449;-65
2023/04/24 05:32:59;;;;;;;3.05;1.02;;;;;;;17.80;52.79;99360.00;5094812;28;20200;-65
2023/04/24 05:35:24;;;;;;;2.83;0.85;;;;;;;17.79;52.54;99358.28;5094743;28;20534;-64
2023/04/24 05:37:50;;;;;;;2.63;0.82;;;;;;;17.80;52.78;99364.41;5094596;28;20032;-66
2023/04/24 05:40:15;;;;;;;1.88;0.80;;;;;;;17.79;52.78;99365.34;5094145;28;20431;-64
2023/04/24 05:42:41;;;;;;;1.70;0.90;;;;;;;17.79;52.67;99363.56;5094696;28;20098;-66
2023/04/24 05:45:07;;;;;;;2.92;1.10;;;;;;;17.78;52.51;99366.28;5094469;28;20106;-66
2023/04/24 05:47:32;;;;;;;1.92;0.80;;;;;;;17.79;52.87;99366.22;5094348;28;20487;-65
2023/04/24 05:49:58;;;;;;;1.15;0.80;;;;;;;17.78;52.69;99371.56;5094477;28;20028;-65
2023/04/24 05:52:23;;;;;;;2.25;0.80;;;;;;;17.79;52.39;99368.84;5094480;28;20071;-66
2023/04/24 05:54:48;;;;;;;2.15;1.00;;;;;;;17.80;52.33;99373.19;5094055;28;20103;-66
2023/04/24 05:57:14;;;;;;;3.10;1.00;;;;;;;17.79;52.68;99374.13;5093343;28;20032;-64
2023/04/24 05:59:40;;;;;;;2.22;0.88;;;;;;;17.80;52.52;99377.59;5094419;28;20024;-64
2023/04/24 06:02:06;;;;;;;2.35;1.00;;;;;;;17.79;52.82;99389.97;5094302;28;20016;-66
2023/04/24 06:04:32;;;;;;;1.88;0.75;;;;;;;17.78;52.46;99387.38;5094054;28;20024;-65
2023/04/24 06:06:57;;;;;;;3.10;1.10;;;;;;;17.78;52.79;99385.59;5094478;28;20073;-66
2023/04/24 06:09:23;;;;;;;2.67;1.00;;;;;;;17.77;52.57;99390.97;5093837;28;20024;-67
2023/04/24 06:11:52;;;;;;;2.00;0.75;;;;;;;17.77;52.59;99389.16;5094216;28;20027;-65
2023/04/24 06:14:18;;;;;;;3.55;0.95;;;;;;;17.76;52.73;99394.50;5094137;28;20016;-65
2023/04/24 06:16:43;;;;;;;1.77;0.85;;;;;;;17.77;52.54;99390.97;5093730;28;20445;-65
2023/04/24 06:19:08;;;;;;;2.40;0.98;;;;;;;17.75;52.63;99392.81;5093851;28;20031;-64
2023/04/24 06:21:34;;;;;;;1.88;0.63;;;;;;;17.75;52.72;99392.81;5075834;28;20035;-66
2023/04/24 06:23:59;;;;;;;1.70;0.73;;;;;;;17.73;52.91;99392.03;5093622;28;20027;-66
2023/04/24 06:26:26;;;;;;;3.90;1.20;;;;;;;17.74;52.76;99399.88;5093945;28;20040;-65
2023/04/24 06:28:53;;;;;;;2.78;1.20;;;;;;;17.75;52.64;99404.22;5093544;28;20472;-66
2023/04/24 06:31:19;;;;;;;2.33;1.00;;;;;;;17.75;52.89;99412.13;5093631;28;20024;-65
2023/04/24 06:33:45;;;;;;;2.58;0.90;;;;;;;17.73;52.83;99405.22;5093365;28;20170;-65
2023/04/24 06:36:11;;;;;;;3.00;1.17;;;;;;;17.73;52.80;99416.66;5093462;28;20027;-65
2023/04/24 06:38:36;;;;;;;2.60;0.77;;;;;;;17.71;52.60;99419.34;5093228;28;20380;-65
2023/04/24 06:41:03;;;;;;;2.25;0.90;;;;;;;17.71;52.87;99422.00;5093477;28;20031;-66
2023/04/24 06:43:28;;;;;;;2.78;1.10;;;;;;;17.71;52.84;99429.91;5093167;28;20012;-65
2023/04/24 06:45:54;;;;;;;2.80;0.93;;;;;;;17.70;52.75;99428.22;5092751;28;20157;-66
2023/04/24 06:48:19;;;;;;;2.35;0.93;;;;;;;17.70;52.88;99428.22;5093395;28;20495;-64
2023/04/24 06:50:44;;;;;;;2.28;1.10;;;;;;;17.73;52.65;99431.63;5093409;28;20031;-64
2023/04/24 06:53:12;;;;;;;2.55;0.95;;;;;;;17.71;52.74;99442.25;5093001;28;20099;-65
2023/04/24 06:55:37;;;;;;;2.13;0.88;;;;;;;17.70;53.06;99444.03;5093183;28;20116;-65
2023/04/24 06:58:03;;;;;;;2.30;0.90;;;;;;;17.71;52.70;99451.03;5092965;28;20052;-65
2023/04/24 07:00:29;;;;;;;2.13;0.93;;;;;;;17.69;52.81;99436.19;5074943;28;20077;-65
2023/04/24 07:02:55;;;;;;;4.10;1.33;;;;;;;17.71;52.91;99442.25;5093277;28;20421;-66
2023/04/24 07:05:20;;;;;;;2.45;0.88;;;;;;;17.71;52.93;99439.59;5093076;28;20111;-66
2023/04/24 07:07:47;;;;;;;2.70;1.05;;;;;;;17.72;52.73;99441.31;5092478;28;20095;-66
2023/04/24 07:10:12;;;;;;;2.22;0.90;;;;;;;17.71;53.08;99448.38;5093095;28;20121;-65
2023/04/24 07:12:38;;;;;;;3.03;1.10;;;;;;;17.73;53.04;99447.44;5092926;28;20045;-65
2023/04/24 07:15:05;;;;;;;3.08;1.00;;;;;;;17.74;52.67;99449.16;5092928;28;20066;-65
2023/04/24 07:17:30;;;;;;;3.70;1.10;;;;;;;17.73;53.00;99447.44;5092497;28;20038;-65
2023/04/24 07:19:55;;;;;;;1.85;0.80;;;;;;;17.73;52.79;99442.16;5092986;28;20024;-65
2023/04/24 07:22:21;;;;;;;2.15;0.95;;;;;;;17.71;52.79;99451.03;5092485;28;20024;-66
2023/04/24 07:24:47;;;;;;;4.00;1.02;;;;;;;17.70;52.68;99454.59;5092570;28;20035;-68
2023/04/24 07:27:14;;;;;;;1.50;0.77;;;;;;;17.69;53.00;99460.78;5092480;28;20081;-65
2023/04/24 07:29:40;;;;;;;2.85;0.90;;;;;;;17.74;52.91;99454.44;5092753;28;20082;-67
2023/04/24 07:32:05;;;;;;;3.03;0.90;;;;;;;17.73;52.80;99458.00;5092509;28;20473;-66
2023/04/24 07:34:31;;;;;;;3.05;1.05;;;;;;;17.71;52.87;99460.72;5092200;28;20039;-66
2023/04/24 07:36:58;;;;;;;3.05;0.95;;;;;;;17.71;52.65;99461.59;5092194;28;20048;-66
2023/04/24 07:39:23;;;;;;;2.70;1.10;;;;;;;17.71;53.06;99455.44;5092491;28;20072;-66
2023/04/24 07:41:49;;;;;;;2.25;0.68;;;;;;;17.70;52.92;99461.66;5092522;28;20483;-66
2023/04/24 07:44:14;;;;;;;2.25;0.80;;;;;;;17.73;52.97;99463.28;5092255;28;20474;-66
2023/04/24 07:46:40;;;;;;;3.20;1.00;;;;;;;17.72;53.14;99462.41;5092278;28;20024;-66
2023/04/24 07:49:05;;;;;;;3.28;1.00;;;;;;;17.74;52.96;99475.56;5092091;28;20028;-64
2023/04/24 07:51:33;;;;;;;1.92;0.70;;;;;;;17.70;52.99;99465.16;5092197;28;20488;-65
2023/04/24 07:53:58;;;;;;;2.75;0.85;;;;;;;17.74;53.05;99454.44;5092239;28;20024;-65
2023/04/24 07:56:25;;;;;;;2.55;0.90;;;;;;;17.75;52.98;99456.13;5091988;28;20044;-64
2023/04/24 07:58:50;;;;;;;1.90;0.80;;;;;;;17.70;53.01;99451.97;5092221;28;20464;-66
2023/04/24 08:01:16;;;;;;;1.83;0.73;;;;;;;17.73;52.80;99452.72;5092004;28;20054;-66
2023/04/24 08:03:41;;;;;;;2.58;1.00;;;;;;;17.71;52.83;99456.31;5091878;28;20567;-66
2023/04/24 08:06:06;;;;;;;2.85;0.98;;;;;;;17.75;52.81;99461.41;5107798;28;20039;-66
2023/04/24 08:08:32;;;;;;;1.98;0.90;;;;;;;17.75;52.95;99462.28;5092286;28;20368;-66
2023/04/24 08:10:57;;;;;;;3.65;0.90;;;;;;;17.74;52.95;99455.31;5089665;28;20115;-65
2023/04/24 08:13:23;;;;;;;4.32;1.17;;;;;;;17.78;52.56;99456.84;5092133;28;20032;-65
2023/04/24 08:15:49;;;;;;;3.10;1.15;;;;;;;17.78;53.00;99454.22;5092054;28;20115;-64
2023/04/24 08:18:15;;;;;;;1.95;0.70;;;;;;;17.79;52.69;99457.72;5091668;28;20031;-65
2023/04/24 08:20:41;;;;;;;1.90;0.90;;;;;;;17.80;52.83;99460.28;5094547;28;20036;-65
2023/04/24 08:23:06;;;;;;;1.45;0.85;;;;;;;17.80;53.10;99448.84;5096123;28;20126;-65
2023/04/24 08:25:32;;;;;;;3.95;0.80;;;;;;;17.79;53.24;99458.59;5096289;28;20036;-65
2023/04/24 08:27:58;;;;;;;1.80;0.82;;;;;;;17.81;52.87;99450.56;5095792;28;20118;-65
2023/04/24 08:30:23;;;;;;;2.90;0.90;;;;;;;17.83;52.99;99448.72;5096167;28;20028;-66
2023/04/24 08:32:48;;;;;;;2.00;0.80;;;;;;;17.85;52.97;99452.13;5095488;28;20043;-66
2023/04/24 08:35:14;;;;;;;3.20;0.80;;;;;;;17.84;52.96;99451.28;5095932;28;20043;-66
2023/04/24 08:37:39;;;;;;;1.40;0.77;;;;;;;17.85;52.94;99457.41;5096053;28;20026;-65
2023/04/24 08:40:30;;;;;;;1.88;0.95;;;;;;;17.87;52.94;99458.19;5095874;28;20016;-66
2023/04/24 08:42:56;;;;;;;2.85;0.98;;;;;;;17.88;52.58;99446.72;5095655;28;20024;-65
2023/04/24 08:45:23;;;;;;;2.45;0.90;;;;;;;17.88;52.95;99446.72;5077099;28;20058;-65
2023/04/24 08:47:49;;;;;;;2.80;0.98;;;;;;;17.90;52.93;99434.28;5095315;28;20032;-65
2023/04/24 08:50:15;;;;;;;2.35;0.90;;;;;;;17.91;52.63;99443.94;5095549;28;20028;-65
2023/04/24 08:52:41;;;;;;;1.90;0.70;;;;;;;17.95;52.53;99437.56;5095654;28;20027;-65
2023/04/24 08:55:07;;;;;;;1.55;0.85;;;;;;;17.95;52.46;99448.13;5095576;28;20024;-65
2023/04/24 08:57:33;;;;;;;3.75;0.90;;;;;;;17.97;52.75;99451.53;5095351;28;20082;-65
2023/04/24 09:00:00;;;;;;;1.98;0.68;;;;;;;17.99;52.40;99443.56;5095386;28;20541;-66
2023/04/24 09:02:26;;;;;;;1.38;0.63;;;;;;;18.01;52.36;99452.25;5095321;28;20031;-66
2023/04/24 09:04:52;;;;;;;3.53;1.00;;;;;;;18.06;52.26;99449.44;5095434;28;20020;-65
2023/04/24 09:07:22;;;;;;;2.45;0.80;;;;;;;18.08;52.23;99442.28;5095376;28;20430;-65
2023/04/24 09:09:49;;;;;;;1.95;0.85;;;;;;;18.08;52.54;99452.84;5095372;28;20020;-65
2023/04/24 09:12:14;;;;;;;2.85;0.88;;;;;;;18.10;52.23;99440.41;5095129;28;20404;-65
2023/04/24 09:14:44;;;;;;;2.10;0.82;;;;;;;18.07;52.58;99440.56;5095204;28;20028;-66
2023/04/24 09:17:10;;;;;;;2.05;0.73;;;;;;;18.09;52.37;99439.56;5094451;28;20031;-66
2023/04/24 09:19:36;;;;;;;3.10;0.90;;;;;;;18.11;52.26;99439.47;5076861;28;20110;-66
2023/04/24 09:22:06;;;;;;;2.20;0.60;;;;;;;18.13;52.37;99448.19;5095199;28;20103;-65
2023/04/24 09:24:31;;;;;;;1.42;0.70;;;;;;;18.15;52.46;99448.97;5095141;28;20048;-65
2023/04/24 09:27:07;;;;;;;2.83;0.82;;;;;;;18.15;52.28;99443.69;5094846;28;20448;-65
2023/04/24 09:29:32;;;;;;;1.55;0.75;;;;;;;18.15;52.48;99451.59;5094913;28;20028;-65
2023/04/24 09:31:59;;;;;;;3.08;1.02;;;;;;;18.17;52.33;99440.97;5093189;28;20453;-65
2023/04/24 09:34:27;;;;;;;1.63;0.80;;;;;;;18.16;52.55;99442.75;5110560;28;20044;-66
2023/04/24 09:36:54;;;;;;;1.88;0.80;;;;;;;18.17;52.16;99444.50;5094683;28;20035;-65
2023/04/24 09:39:20;;;;;;;2.38;0.60;;;;;;;18.14;52.50;99446.41;5094845;28;20024;-66
2023/04/24 09:41:49;;;;;;;2.83;0.82;;;;;;;18.16;52.49;99440.09;5094750;28;20376;-65
2023/04/24 09:44:16;;;;;;;2.45;0.80;;;;;;;18.15;52.24;99448.97;5094679;28;20383;-65
2023/04/24 09:46:42;;;;;;;2.00;0.77;;;;;;;18.18;52.25;99446.19;5094161;28;20031;-64
2023/04/24 09:49:16;;;;;;;2.00;0.77;;;;;;;18.18;52.20;99440.03;5094421;28;20016;-65
2023/04/24 09:51:42;;;;;;;1.58;0.80;;;;;;;18.19;52.16;99447.91;5094373;28;20028;-65
2023/04/24 09:54:17;;;;;;;1.85;0.80;;;;;;;18.21;52.50;99443.38;5094116;28;20047;-67
2023/04/24 09:56:45;;;;;;;2.00;0.83;;;;;;;18.22;52.47;99450.38;5094067;28;20107;-65
2023/04/24 09:59:11;;;;;;;1.00;0.50;;;;;;;18.18;52.45;99455.88;5094302;28;20234;-65
2023/04/24 10:01:38;;;;;;;3.30;1.00;;;;;;;18.21;52.57;99446.03;5109809;28;20421;-65
2023/04/24 10:04:04;;;;;;;1.20;0.60;;;;;;;18.21;52.14;99455.75;5094287;28;20028;-65
2023/04/24 10:06:35;;;;;;;2.17;0.95;;;;;;;18.22;52.41;99447.72;5094138;28;20012;-65
2023/04/24 10:09:02;;;;;;;2.40;0.80;;;;;;;18.24;52.33;99443.25;5094138;28;20028;-66
2023/04/24 10:11:28;;;;;;;1.65;0.75;;;;;;;18.23;52.41;99451.22;5094003;28;20442;-65
2023/04/24 10:13:53;;;;;;;1.50;0.75;;;;;;;18.24;52.25;99453.81;5094141;28;20028;-66
2023/04/24 10:16:22;;;;;;;2.20;0.70;;;;;;;18.25;52.12;99450.22;5093635;28;20058;-65
2023/04/24 10:18:48;;;;;;;2.90;0.90;;;;;;;18.27;52.33;99452.81;5083622;28;20024;-67
2023/04/24 10:21:15;;;;;;;1.40;0.70;;;;;;;18.28;52.11;99453.63;5093868;28;20031;-66
2023/04/24 10:23:42;;;;;;;1.77;0.80;;;;;;;18.28;52.12;99443.06;5093830;28;20541;-65
2023/04/24 10:26:09;;;;;;;2.28;0.75;;;;;;;18.29;52.24;99447.41;5093807;28;20039;-65
2023/04/24 10:28:36;;;;;;;2.28;0.80;;;;;;;18.30;52.11;99435.94;5093087;28;20455;-65
2023/04/24 10:31:02;;;;;;;2.42;0.82;;;;;;;18.30;52.42;99441.22;5093746;28;20063;-66
2023/04/24 10:33:29;;;;;;;1.88;0.73;;;;;;;18.32;52.09;99434.06;5093488;28;20040;-65
2023/04/24 10:35:56;;;;;;;1.58;0.73;;;;;;;18.32;52.33;99434.94;5075397;28;20059;-65
2023/04/24 10:38:26;;;;;;;2.88;0.75;;;;;;;18.36;52.31;99435.63;5093624;28;20031;-66
2023/04/24 10:41:06;;;;;;;2.65;1.08;;;;;;;18.34;52.05;99437.47;5093477;28;20028;-66
2023/04/24 10:43:33;;;;;;;2.60;0.93;;;;;;;18.37;51.99;99432.06;5092708;28;20024;-65
2023/04/24 10:46:04;;;;;;;3.10;0.98;;;;;;;18.38;52.05;99433.75;5093122;28;20039;-65
2023/04/24 10:48:30;;;;;;;2.53;0.82;;;;;;;18.38;51.99;99425.84;5093281;28;20024;-66
2023/04/24 10:50:55;;;;;;;2.58;0.80;;;;;;;18.40;52.24;99431.06;5093331;28;20024;-65
2023/04/24 10:53:23;;;;;;;3.25;0.82;;;;;;;18.40;51.91;99420.47;5093262;28;20388;-65
2023/04/24 10:55:57;;;;;;;2.63;0.80;;;;;;;18.40;52.38;99429.25;5093316;28;20024;-66
2023/04/24 10:58:24;;;;;;;3.25;0.90;;;;;;;18.41;52.02;99423.06;5092778;28;20544;-66
2023/04/24 11:01:00;;;;;;;3.08;0.98;;;;;;;18.41;52.00;99428.34;5093216;28;20024;-65
2023/04/24 11:03:30;;;;;;;1.67;0.75;;;;;;;18.42;52.17;99418.59;5108932;28;20020;-65
2023/04/24 11:05:55;;;;;;;2.17;1.05;;;;;;;18.40;52.23;99416.03;5093100;28;20028;-64
2023/04/24 11:08:28;;;;;;;2.72;0.90;;;;;;;18.41;52.37;99428.34;5092980;28;20038;-66
2023/04/24 11:10:59;;;;;;;1.55;0.70;;;;;;;18.42;51.93;99432.69;5092972;28;20099;-65
2023/04/24 11:13:27;;;;;;;2.00;0.77;;;;;;;18.41;51.96;99433.63;5092413;28;20073;-66
2023/04/24 11:16:15;;;;;;;1.08;0.70;;;;;;;18.45;52.04;99431.69;5092787;28;20020;-66
2023/04/24 11:18:50;;;;;;;2.53;0.80;;;;;;;18.45;52.21;99431.69;5092751;28;20396;-65
2023/04/24 11:21:19;;;;;;;2.83;1.00;;;;;;;18.44;52.20;99433.44;5092597;28;20496;-65
2023/04/24 11:23:45;;;;;;;1.92;0.70;;;;;;;18.45;52.33;99434.31;5074572;28;20508;-67
2023/04/24 11:26:13;;;;;;;2.55;0.70;;;;;;;18.45;52.27;99429.88;5092551;28;20484;-66
2023/04/24 11:28:46;;;;;;;2.42;0.73;;;;;;;18.47;52.16;99433.31;5092177;28;20024;-65
2023/04/24 11:31:49;;;;;;;1.67;0.82;;;;;;;18.46;52.05;99421.00;5092860;28;20475;-66